createdAt,value
2017-07-18T00:00:37.832Z,0
2017-07-18T00:01:37.853Z,0
2017-07-18T00:02:37.593Z,0
2017-07-18T00:03:37.610Z,0
2017-07-18T00:04:37.945Z,0
2017-07-18T00:05:38.286Z,0
2017-07-18T00:06:38.331Z,0
2017-07-18T00:07:38.033Z,0
2017-07-18T00:08:38.387Z,0
2017-07-18T00:09:38.091Z,0
2017-07-18T00:10:38.447Z,0
2017-07-18T00:11:38.460Z,0
2017-07-18T00:12:38.502Z,0
2017-07-18T00:13:38.525Z,0
2017-07-18T00:14:37.931Z,0
2017-07-18T00:15:38.280Z,0
2017-07-18T00:16:38.613Z,0
2017-07-18T00:17:38.338Z,0
2017-07-18T00:18:38.677Z,0
2017-07-18T00:19:38.395Z,0
2017-07-18T00:20:38.420Z,0
2017-07-18T00:21:38.756Z,0
2017-07-18T00:22:38.498Z,0
2017-07-18T00:23:39.074Z,0
2017-07-18T00:24:38.548Z,0
2017-07-18T00:25:38.568Z,0
2017-07-18T00:26:38.912Z,0
2017-07-18T00:27:38.006Z,0
2017-07-18T00:28:39.226Z,0
2017-07-18T00:29:39.013Z,0
2017-07-18T00:30:38.749Z,0
2017-07-18T00:31:39.069Z,0
2017-07-18T00:32:38.783Z,0
2017-07-18T00:33:39.066Z,0
2017-07-18T00:34:39.184Z,0
2017-07-18T00:35:38.872Z,0
2017-07-18T00:36:39.233Z,0
2017-07-18T00:37:38.936Z,0
2017-07-18T00:38:39.223Z,0
2017-07-18T00:39:38.991Z,0
2017-07-18T00:40:39.339Z,0
2017-07-18T00:41:38.757Z,0
2017-07-18T00:42:39.086Z,0
2017-07-18T00:43:39.407Z,0
2017-07-18T00:44:39.149Z,0
2017-07-18T00:45:38.856Z,0
2017-07-18T00:46:38.934Z,0
2017-07-18T00:47:38.930Z,0
2017-07-18T00:48:39.207Z,0
2017-07-18T00:49:39.284Z,0
2017-07-18T00:50:39.633Z,0
2017-07-18T00:51:39.350Z,0
2017-07-18T00:52:39.076Z,0
2017-07-18T00:53:40.036Z,0
2017-07-18T00:54:39.753Z,0
2017-07-18T00:55:39.785Z,0
2017-07-18T00:56:39.195Z,0
2017-07-18T00:57:39.839Z,0
2017-07-18T00:58:39.501Z,0
2017-07-18T00:59:39.277Z,0
2017-07-18T01:00:39.954Z,0
2017-07-18T01:01:39.649Z,0
2017-07-18T01:02:39.380Z,0
2017-07-18T01:03:40.016Z,0
2017-07-18T01:04:39.745Z,0
2017-07-18T01:05:39.761Z,0
2017-07-18T01:06:39.172Z,0
2017-07-18T01:07:39.516Z,0
2017-07-18T01:08:40.428Z,0
2017-07-18T01:09:39.584Z,0
2017-07-18T01:10:39.606Z,0
2017-07-18T01:11:40.259Z,0
2017-07-18T01:12:40.292Z,0
2017-07-18T01:13:40.631Z,0
2017-07-18T01:14:39.745Z,0
2017-07-18T01:15:40.376Z,0
2017-07-18T01:16:39.793Z,0
2017-07-18T01:17:40.447Z,0
2017-07-18T01:18:40.713Z,0
2017-07-18T01:19:40.209Z,0
2017-07-18T01:20:40.535Z,0
2017-07-18T01:21:39.926Z,0
2017-07-18T01:22:40.592Z,0
2017-07-18T01:23:40.545Z,0
2017-07-18T01:24:40.016Z,0
2017-07-18T01:25:40.049Z,0
2017-07-18T01:26:40.087Z,0
2017-07-18T01:27:40.420Z,0
2017-07-18T01:28:41.069Z,0
2017-07-18T01:29:40.489Z,0
2017-07-18T01:30:40.835Z,0
2017-07-18T01:31:40.239Z,0
2017-07-18T01:32:40.899Z,0
2017-07-18T01:33:40.852Z,0
2017-07-18T01:34:40.646Z,0
2017-07-18T01:35:40.664Z,0
2017-07-18T01:36:40.383Z,0
2017-07-18T01:37:41.032Z,0
2017-07-18T01:38:41.056Z,0
2017-07-18T01:39:40.466Z,0
2017-07-18T01:40:40.511Z,0
2017-07-18T01:41:40.536Z,0
2017-07-18T01:42:40.245Z,0
2017-07-18T01:43:41.460Z,0
2017-07-18T01:44:40.623Z,0
2017-07-18T01:45:40.332Z,0
2017-07-18T01:46:41.305Z,0
2017-07-18T01:47:41.339Z,0
2017-07-18T01:48:41.349Z,0
2017-07-18T01:49:40.770Z,0
2017-07-18T01:50:41.441Z,0
2017-07-18T01:51:40.824Z,0
2017-07-18T01:52:40.870Z,0
2017-07-18T01:53:41.503Z,0
2017-07-18T01:54:41.238Z,0
2017-07-18T01:55:41.571Z,0
2017-07-18T01:56:41.605Z,0
2017-07-18T01:57:40.996Z,0
2017-07-18T01:58:41.348Z,0
2017-07-18T01:59:41.685Z,0
2017-07-18T02:00:41.726Z,0
2017-07-18T02:01:41.124Z,0
2017-07-18T02:02:41.469Z,0
2017-07-18T02:03:42.048Z,0
2017-07-18T02:04:41.839Z,0
2017-07-18T02:05:41.247Z,0
2017-07-18T02:06:41.582Z,0
2017-07-18T02:07:41.297Z,0
2017-07-18T02:08:41.650Z,0
2017-07-18T02:09:41.698Z,0
2017-07-18T02:10:42.019Z,0
2017-07-18T02:11:41.419Z,0
2017-07-18T02:12:41.786Z,0
2017-07-18T02:13:41.726Z,0
2017-07-18T02:14:41.216Z,0
2017-07-18T02:15:41.541Z,0
2017-07-18T02:16:41.886Z,0
2017-07-18T02:17:42.208Z,0
2017-07-18T02:18:42.235Z,0
2017-07-18T02:19:41.965Z,0
2017-07-18T02:20:41.700Z,0
2017-07-18T02:21:41.729Z,0
2017-07-18T02:22:42.066Z,0
2017-07-18T02:23:42.089Z,0
2017-07-18T02:24:42.417Z,0
2017-07-18T02:25:41.540Z,0
2017-07-18T02:26:42.202Z,0
2017-07-18T02:27:41.893Z,0
2017-07-18T02:28:41.935Z,0
2017-07-18T02:29:41.951Z,0
2017-07-18T02:30:41.716Z,0
2017-07-18T02:31:42.040Z,0
2017-07-18T02:32:42.693Z,0
2017-07-18T02:33:42.382Z,0
2017-07-18T02:34:42.424Z,0
2017-07-18T02:35:42.749Z,0
2017-07-18T02:36:42.490Z,0
2017-07-18T02:37:42.823Z,0
2017-07-18T02:38:42.230Z,0
2017-07-18T02:39:42.555Z,0
2017-07-18T02:40:42.605Z,0
2017-07-18T02:41:42.319Z,0
2017-07-18T02:42:42.336Z,0
2017-07-18T02:43:42.686Z,0
2017-07-18T02:44:42.751Z,0
2017-07-18T02:45:43.048Z,0
2017-07-18T02:46:42.773Z,0
2017-07-18T02:47:42.794Z,0
2017-07-18T02:48:42.840Z,0
2017-07-18T02:49:42.541Z,0
2017-07-18T02:50:42.902Z,0
2017-07-18T02:51:42.918Z,0
2017-07-18T02:52:43.275Z,0
2017-07-18T02:53:42.678Z,0
2017-07-18T02:54:42.952Z,0
2017-07-18T02:55:43.032Z,0
2017-07-18T02:56:43.070Z,0
2017-07-18T02:57:43.090Z,0
2017-07-18T02:58:42.821Z,0
2017-07-18T02:59:43.395Z,0
2017-07-18T03:00:42.871Z,0
2017-07-18T03:01:42.898Z,0
2017-07-18T03:02:42.926Z,0
2017-07-18T03:03:42.951Z,0
2017-07-18T03:04:43.927Z,0
2017-07-18T03:05:43.636Z,0
2017-07-18T03:06:43.082Z,0
2017-07-18T03:07:43.079Z,0
2017-07-18T03:08:43.443Z,0
2017-07-18T03:09:43.706Z,0
2017-07-18T03:10:43.485Z,0
2017-07-18T03:11:43.822Z,0
2017-07-18T03:12:42.918Z,0
2017-07-18T03:13:43.571Z,0
2017-07-18T03:14:43.907Z,0
2017-07-18T03:15:43.953Z,0
2017-07-18T03:16:43.984Z,0
2017-07-18T03:17:43.679Z,0
2017-07-18T03:18:44.042Z,0
2017-07-18T03:19:43.731Z,0
2017-07-18T03:20:44.102Z,0
2017-07-18T03:21:43.808Z,0
2017-07-18T03:22:43.837Z,4
2017-07-18T03:23:44.175Z,4
2017-07-18T03:24:43.528Z,4
2017-07-18T03:25:43.924Z,0
2017-07-18T03:26:43.954Z,4
2017-07-18T03:27:44.282Z,4
2017-07-18T03:28:44.014Z,8
2017-07-18T03:29:44.287Z,4
2017-07-18T03:30:44.386Z,4
2017-07-18T03:31:44.414Z,8
2017-07-18T03:32:43.819Z,8
2017-07-18T03:33:43.534Z,8
2017-07-18T03:34:43.897Z,12
2017-07-18T03:35:43.927Z,8
2017-07-18T03:36:43.950Z,12
2017-07-18T03:37:43.655Z,16
2017-07-18T03:38:44.628Z,16
2017-07-18T03:39:44.026Z,20
2017-07-18T03:40:44.681Z,20
2017-07-18T03:41:44.694Z,20
2017-07-18T03:42:44.728Z,20
2017-07-18T03:43:44.759Z,28
2017-07-18T03:44:43.871Z,28
2017-07-18T03:45:44.823Z,32
2017-07-18T03:46:44.543Z,36
2017-07-18T03:47:44.870Z,36
2017-07-18T03:48:44.309Z,40
2017-07-18T03:49:44.308Z,44
2017-07-18T03:50:44.970Z,48
2017-07-18T03:51:44.064Z,52
2017-07-18T03:52:44.407Z,56
2017-07-18T03:53:45.055Z,60
2017-07-18T03:54:44.790Z,60
2017-07-18T03:55:44.803Z,68
2017-07-18T03:56:44.840Z,72
2017-07-18T03:57:44.548Z,80
2017-07-18T03:58:44.265Z,80
2017-07-18T03:59:45.228Z,84
2017-07-18T04:00:44.640Z,96
2017-07-18T04:01:44.980Z,100
2017-07-18T04:02:45.032Z,104
2017-07-18T04:03:44.724Z,108
2017-07-18T04:04:45.065Z,112
2017-07-18T04:05:44.806Z,120
2017-07-18T04:06:45.129Z,120
2017-07-18T04:07:45.471Z,128
2017-07-18T04:08:45.525Z,132
2017-07-18T04:09:45.213Z,140
2017-07-18T04:10:45.554Z,144
2017-07-18T04:11:44.966Z,148
2017-07-18T04:12:45.320Z,152
2017-07-18T04:13:45.640Z,160
2017-07-18T04:14:45.682Z,164
2017-07-18T04:15:45.382Z,168
2017-07-18T04:16:45.747Z,172
2017-07-18T04:17:45.443Z,180
2017-07-18T04:18:45.496Z,184
2017-07-18T04:19:44.877Z,188
2017-07-18T04:20:45.804Z,196
2017-07-18T04:21:45.571Z,200
2017-07-18T04:22:45.291Z,208
2017-07-18T04:23:45.624Z,212
2017-07-18T04:24:45.666Z,220
2017-07-18T04:25:45.930Z,224
2017-07-18T04:26:45.730Z,228
2017-07-18T04:27:46.049Z,236
2017-07-18T04:28:45.773Z,240
2017-07-18T04:29:45.797Z,248
2017-07-18T04:30:45.529Z,260
2017-07-18T04:31:46.168Z,268
2017-07-18T04:32:46.203Z,276
2017-07-18T04:33:46.225Z,284
2017-07-18T04:34:45.327Z,292
2017-07-18T04:35:46.542Z,300
2017-07-18T04:36:46.323Z,308
2017-07-18T04:37:45.727Z,312
2017-07-18T04:38:46.064Z,316
2017-07-18T04:39:45.787Z,324
2017-07-18T04:40:46.682Z,328
2017-07-18T04:41:45.838Z,328
2017-07-18T04:42:46.498Z,332
2017-07-18T04:43:46.226Z,336
2017-07-18T04:44:46.282Z,336
2017-07-18T04:45:46.833Z,340
2017-07-18T04:46:46.615Z,344
2017-07-18T04:47:46.329Z,348
2017-07-18T04:48:46.374Z,348
2017-07-18T04:49:46.379Z,352
2017-07-18T04:50:46.408Z,356
2017-07-18T04:51:46.141Z,360
2017-07-18T04:52:46.478Z,360
2017-07-18T04:53:46.509Z,364
2017-07-18T04:54:46.536Z,364
2017-07-18T04:55:46.503Z,368
2017-07-18T04:56:46.903Z,364
2017-07-18T04:57:46.304Z,368
2017-07-18T04:58:46.971Z,372
2017-07-18T04:59:46.361Z,376
2017-07-18T05:00:47.027Z,376
2017-07-18T05:01:47.052Z,380
2017-07-18T05:02:46.816Z,384
2017-07-18T05:03:46.793Z,388
2017-07-18T05:04:46.825Z,396
2017-07-18T05:05:46.833Z,404
2017-07-18T05:06:47.206Z,408
2017-07-18T05:07:46.288Z,416
2017-07-18T05:08:46.945Z,424
2017-07-18T05:09:46.961Z,432
2017-07-18T05:10:47.254Z,432
2017-07-18T05:11:46.711Z,440
2017-07-18T05:12:47.070Z,448
2017-07-18T05:13:46.772Z,452
2017-07-18T05:14:46.809Z,456
2017-07-18T05:15:47.406Z,464
2017-07-18T05:16:47.548Z,468
2017-07-18T05:17:47.516Z,468
2017-07-18T05:18:47.552Z,480
2017-07-18T05:19:47.578Z,484
2017-07-18T05:20:47.248Z,492
2017-07-18T05:21:47.323Z,496
2017-07-18T05:22:47.676Z,500
2017-07-18T05:23:47.376Z,508
2017-07-18T05:24:47.113Z,512
2017-07-18T05:25:48.008Z,512
2017-07-18T05:26:46.851Z,516
2017-07-18T05:27:47.812Z,520
2017-07-18T05:28:47.528Z,528
2017-07-18T05:29:47.244Z,524
2017-07-18T05:30:47.848Z,528
2017-07-18T05:31:47.328Z,524
2017-07-18T05:32:47.333Z,528
2017-07-18T05:33:47.685Z,528
2017-07-18T05:34:47.382Z,528
2017-07-18T05:35:47.711Z,524
2017-07-18T05:36:48.068Z,524
2017-07-18T05:37:47.476Z,524
2017-07-18T05:38:47.828Z,532
2017-07-18T05:39:47.534Z,540
2017-07-18T05:40:47.827Z,556
2017-07-18T05:41:47.912Z,564
2017-07-18T05:42:47.322Z,576
2017-07-18T05:43:47.959Z,584
2017-07-18T05:44:48.003Z,588
2017-07-18T05:45:48.274Z,592
2017-07-18T05:46:48.060Z,596
2017-07-18T05:47:47.772Z,608
2017-07-18T05:48:47.821Z,628
2017-07-18T05:49:48.166Z,632
2017-07-18T05:50:48.431Z,632
2017-07-18T05:51:48.191Z,640
2017-07-18T05:52:48.226Z,640
2017-07-18T05:53:47.624Z,640
2017-07-18T05:54:48.602Z,636
2017-07-18T05:55:48.624Z,640
2017-07-18T05:56:48.392Z,644
2017-07-18T05:57:48.387Z,644
2017-07-18T05:58:48.416Z,640
2017-07-18T05:59:48.761Z,636
2017-07-18T06:00:48.426Z,636
2017-07-18T06:01:48.797Z,628
2017-07-18T06:02:48.212Z,608
2017-07-18T06:03:48.564Z,596
2017-07-18T06:04:48.601Z,592
2017-07-18T06:05:48.874Z,592
2017-07-18T06:06:48.653Z,600
2017-07-18T06:07:48.357Z,612
2017-07-18T06:08:48.705Z,616
2017-07-18T06:09:48.732Z,620
2017-07-18T06:10:49.024Z,616
2017-07-18T06:11:48.477Z,620
2017-07-18T06:12:49.138Z,620
2017-07-18T06:13:48.846Z,624
2017-07-18T06:14:48.573Z,624
2017-07-18T06:15:49.189Z,648
2017-07-18T06:16:48.637Z,656
2017-07-18T06:17:48.665Z,660
2017-07-18T06:18:49.314Z,660
2017-07-18T06:19:49.014Z,664
2017-07-18T06:20:49.001Z,668
2017-07-18T06:21:49.085Z,672
2017-07-18T06:22:49.113Z,672
2017-07-18T06:23:48.838Z,672
2017-07-18T06:24:49.171Z,672
2017-07-18T06:25:49.444Z,668
2017-07-18T06:26:48.925Z,660
2017-07-18T06:27:49.253Z,648
2017-07-18T06:28:49.298Z,636
2017-07-18T06:29:49.619Z,628
2017-07-18T06:30:49.291Z,620
2017-07-18T06:31:49.061Z,620
2017-07-18T06:32:49.402Z,624
2017-07-18T06:33:49.131Z,640
2017-07-18T06:34:49.147Z,644
2017-07-18T06:35:49.491Z,644
2017-07-18T06:36:49.528Z,640
2017-07-18T06:37:49.856Z,652
2017-07-18T06:38:49.583Z,652
2017-07-18T06:39:49.291Z,656
2017-07-18T06:40:49.893Z,660
2017-07-18T06:41:49.988Z,660
2017-07-18T06:42:49.700Z,672
2017-07-18T06:43:50.056Z,676
2017-07-18T06:44:49.468Z,688
2017-07-18T06:45:50.343Z,692
2017-07-18T06:46:50.129Z,692
2017-07-18T06:47:49.535Z,700
2017-07-18T06:48:49.563Z,700
2017-07-18T06:49:49.588Z,708
2017-07-18T06:50:50.189Z,708
2017-07-18T06:51:49.952Z,708
2017-07-18T06:52:49.694Z,708
2017-07-18T06:53:50.019Z,708
2017-07-18T06:54:50.048Z,704
2017-07-18T06:55:50.378Z,704
2017-07-18T06:56:50.426Z,704
2017-07-18T06:57:50.134Z,696
2017-07-18T06:58:50.506Z,692
2017-07-18T06:59:50.216Z,692
2017-07-18T07:00:50.477Z,700
2017-07-18T07:01:50.269Z,696
2017-07-18T07:02:49.665Z,704
2017-07-18T07:03:49.700Z,708
2017-07-18T07:04:50.354Z,712
2017-07-18T07:05:50.312Z,716
2017-07-18T07:06:50.394Z,720
2017-07-18T07:07:50.430Z,720
2017-07-18T07:08:50.152Z,720
2017-07-18T07:09:50.176Z,720
2017-07-18T07:10:50.777Z,720
2017-07-18T07:11:50.542Z,724
2017-07-18T07:12:50.271Z,724
2017-07-18T07:13:50.919Z,724
2017-07-18T07:14:50.324Z,728
2017-07-18T07:15:51.281Z,732
2017-07-18T07:16:50.398Z,728
2017-07-18T07:17:50.103Z,728
2017-07-18T07:18:50.771Z,728
2017-07-18T07:19:50.152Z,732
2017-07-18T07:20:51.084Z,732
2017-07-18T07:21:50.845Z,736
2017-07-18T07:22:50.879Z,736
2017-07-18T07:23:51.229Z,736
2017-07-18T07:24:51.248Z,736
2017-07-18T07:25:51.212Z,740
2017-07-18T07:26:50.681Z,740
2017-07-18T07:27:51.337Z,744
2017-07-18T07:28:51.058Z,748
2017-07-18T07:29:51.070Z,748
2017-07-18T07:30:51.423Z,752
2017-07-18T07:31:51.130Z,752
2017-07-18T07:32:51.173Z,752
2017-07-18T07:33:51.193Z,748
2017-07-18T07:34:51.228Z,752
2017-07-18T07:35:51.816Z,752
2017-07-18T07:36:50.674Z,748
2017-07-18T07:37:51.618Z,752
2017-07-18T07:38:51.365Z,756
2017-07-18T07:39:51.072Z,756
2017-07-18T07:40:51.976Z,760
2017-07-18T07:41:51.430Z,760
2017-07-18T07:42:51.481Z,764
2017-07-18T07:43:51.171Z,764
2017-07-18T07:44:51.225Z,764
2017-07-18T07:45:51.803Z,764
2017-07-18T07:46:51.273Z,764
2017-07-18T07:47:51.602Z,760
2017-07-18T07:48:51.011Z,764
2017-07-18T07:49:51.669Z,768
2017-07-18T07:50:51.951Z,772
2017-07-18T07:51:52.035Z,780
2017-07-18T07:52:51.450Z,784
2017-07-18T07:53:51.790Z,780
2017-07-18T07:54:51.183Z,780
2017-07-18T07:55:51.781Z,784
2017-07-18T07:56:51.865Z,784
2017-07-18T07:57:52.219Z,780
2017-07-18T07:58:51.312Z,784
2017-07-18T07:59:52.277Z,788
2017-07-18T08:00:52.297Z,792
2017-07-18T08:01:52.323Z,796
2017-07-18T08:02:52.051Z,800
2017-07-18T08:03:52.100Z,804
2017-07-18T08:04:52.426Z,804
2017-07-18T08:05:51.833Z,808
2017-07-18T08:06:51.867Z,816
2017-07-18T08:07:51.883Z,820
2017-07-18T08:08:51.923Z,820
2017-07-18T08:09:52.577Z,824
2017-07-18T08:10:51.981Z,832
2017-07-18T08:11:52.574Z,836
2017-07-18T08:12:51.727Z,840
2017-07-18T08:13:52.375Z,848
2017-07-18T08:14:52.096Z,852
2017-07-18T08:15:52.130Z,856
2017-07-18T08:16:53.026Z,864
2017-07-18T08:17:52.819Z,868
2017-07-18T08:18:52.840Z,868
2017-07-18T08:19:52.550Z,872
2017-07-18T08:20:52.582Z,876
2017-07-18T08:21:52.870Z,880
2017-07-18T08:22:52.643Z,892
2017-07-18T08:23:52.043Z,896
2017-07-18T08:24:52.708Z,900
2017-07-18T08:25:52.733Z,904
2017-07-18T08:26:53.326Z,908
2017-07-18T08:27:52.785Z,912
2017-07-18T08:28:52.828Z,920
2017-07-18T08:29:52.537Z,924
2017-07-18T08:30:52.569Z,932
2017-07-18T08:31:53.174Z,936
2017-07-18T08:32:53.259Z,948
2017-07-18T08:33:53.276Z,956
2017-07-18T08:34:52.685Z,960
2017-07-18T08:35:52.710Z,968
2017-07-18T08:36:53.331Z,976
2017-07-18T08:37:53.094Z,984
2017-07-18T08:38:53.112Z,996
2017-07-18T08:39:52.834Z,1000
2017-07-18T08:40:53.494Z,1012
2017-07-18T08:41:53.143Z,1016
2017-07-18T08:42:52.928Z,1020
2017-07-18T08:43:53.269Z,1024
2017-07-18T08:44:53.617Z,1028
2017-07-18T08:45:53.325Z,1032
2017-07-18T08:46:53.347Z,1032
2017-07-18T08:47:53.398Z,1036
2017-07-18T08:48:53.418Z,1040
2017-07-18T08:49:53.141Z,1048
2017-07-18T08:50:53.785Z,1056
2017-07-18T08:51:53.447Z,1060
2017-07-18T08:52:53.867Z,1064
2017-07-18T08:53:53.256Z,1076
2017-07-18T08:54:53.594Z,1084
2017-07-18T08:55:53.640Z,1088
2017-07-18T08:56:54.267Z,1092
2017-07-18T08:57:53.685Z,1096
2017-07-18T08:58:53.712Z,1100
2017-07-18T08:59:53.433Z,1100
2017-07-18T09:00:53.455Z,1108
2017-07-18T09:01:53.738Z,1116
2017-07-18T09:02:53.835Z,1124
2017-07-18T09:03:53.555Z,1132
2017-07-18T09:04:53.885Z,1140
2017-07-18T09:05:53.618Z,1152
2017-07-18T09:06:54.514Z,1160
2017-07-18T09:07:54.292Z,1168
2017-07-18T09:08:54.320Z,1180
2017-07-18T09:09:54.041Z,1188
2017-07-18T09:10:53.753Z,1200
2017-07-18T09:11:53.735Z,1212
2017-07-18T09:12:54.156Z,1220
2017-07-18T09:13:54.157Z,1228
2017-07-18T09:14:54.490Z,1240
2017-07-18T09:15:54.230Z,1248
2017-07-18T09:16:54.206Z,1256
2017-07-18T09:17:53.963Z,1256
2017-07-18T09:18:54.307Z,1260
2017-07-18T09:19:53.717Z,1264
2017-07-18T09:20:54.054Z,1272
2017-07-18T09:21:54.351Z,1280
2017-07-18T09:22:54.428Z,1288
2017-07-18T09:23:54.451Z,1296
2017-07-18T09:24:54.477Z,1304
2017-07-18T09:25:53.890Z,1312
2017-07-18T09:26:54.518Z,1316
2017-07-18T09:27:54.888Z,1324
2017-07-18T09:28:54.296Z,1336
2017-07-18T09:29:54.341Z,1340
2017-07-18T09:30:54.355Z,1344
2017-07-18T09:31:54.687Z,1340
2017-07-18T09:32:54.732Z,1344
2017-07-18T09:33:54.761Z,1356
2017-07-18T09:34:55.101Z,1380
2017-07-18T09:35:55.134Z,1400
2017-07-18T09:36:55.419Z,1404
2017-07-18T09:37:55.185Z,1404
2017-07-18T09:38:54.904Z,1412
2017-07-18T09:39:54.938Z,1412
2017-07-18T09:40:54.960Z,1408
2017-07-18T09:41:55.557Z,1424
2017-07-18T09:42:54.719Z,1444
2017-07-18T09:43:54.438Z,1456
2017-07-18T09:44:54.779Z,1468
2017-07-18T09:45:55.119Z,1480
2017-07-18T09:46:55.403Z,1476
2017-07-18T09:47:54.873Z,1480
2017-07-18T09:48:54.906Z,1488
2017-07-18T09:49:54.922Z,1496
2017-07-18T09:50:54.950Z,1520
2017-07-18T09:51:54.923Z,1540
2017-07-18T09:52:55.333Z,1556
2017-07-18T09:53:54.765Z,1564
2017-07-18T09:54:54.798Z,1600
2017-07-18T09:55:55.419Z,1592
2017-07-18T09:56:55.725Z,1592
2017-07-18T09:57:55.476Z,1592
2017-07-18T09:58:55.817Z,1600
2017-07-18T09:59:55.523Z,1612
2017-07-18T10:00:55.252Z,1628
2017-07-18T10:01:55.851Z,1628
2017-07-18T10:02:54.997Z,1628
2017-07-18T10:03:55.976Z,1636
2017-07-18T10:04:55.378Z,1640
2017-07-18T10:05:55.725Z,1656
2017-07-18T10:06:56.374Z,1668
2017-07-18T10:07:55.776Z,1680
2017-07-18T10:08:56.122Z,1712
2017-07-18T10:09:56.147Z,1740
2017-07-18T10:10:55.889Z,1768
2017-07-18T10:11:56.154Z,1764
2017-07-18T10:12:55.927Z,1744
2017-07-18T10:13:55.960Z,1724
2017-07-18T10:14:55.691Z,1732
2017-07-18T10:15:56.017Z,1744
2017-07-18T10:16:56.625Z,1752
2017-07-18T10:17:56.376Z,1756
2017-07-18T10:18:56.418Z,1764
2017-07-18T10:19:56.475Z,1784
2017-07-18T10:20:56.164Z,1824
2017-07-18T10:21:56.185Z,1828
2017-07-18T10:22:55.912Z,1836
2017-07-18T10:23:55.945Z,1888
2017-07-18T10:24:55.981Z,1960
2017-07-18T10:25:56.013Z,2020
2017-07-18T10:26:56.596Z,2076
2017-07-18T10:27:55.756Z,2104
2017-07-18T10:28:56.102Z,2124
2017-07-18T10:29:56.440Z,2128
2017-07-18T10:30:56.488Z,2104
2017-07-18T10:31:56.748Z,2096
2017-07-18T10:32:56.217Z,2140
2017-07-18T10:33:56.901Z,2264
2017-07-18T10:34:56.587Z,2380
2017-07-18T10:35:56.611Z,2448
2017-07-18T10:36:56.587Z,2372
2017-07-18T10:37:56.990Z,2332
2017-07-18T10:38:57.024Z,2312
2017-07-18T10:39:56.430Z,2332
2017-07-18T10:40:56.762Z,2344
2017-07-18T10:41:57.052Z,2336
2017-07-18T10:42:56.825Z,2328
2017-07-18T10:43:56.546Z,2340
2017-07-18T10:44:56.266Z,2376
2017-07-18T10:45:56.632Z,2380
2017-07-18T10:46:56.583Z,2404
2017-07-18T10:47:56.668Z,2400
2017-07-18T10:48:57.323Z,2412
2017-07-18T10:49:57.036Z,2408
2017-07-18T10:50:56.783Z,2456
2017-07-18T10:51:57.661Z,2496
2017-07-18T10:52:57.130Z,2560
2017-07-18T10:53:57.474Z,2584
2017-07-18T10:54:57.191Z,2664
2017-07-18T10:55:56.604Z,2748
2017-07-18T10:56:57.504Z,2856
2017-07-18T10:57:57.594Z,2920
2017-07-18T10:58:56.998Z,2984
2017-07-18T10:59:57.347Z,2952
2017-07-18T11:00:57.692Z,2888
2017-07-18T11:01:57.094Z,2952
2017-07-18T11:02:57.442Z,2924
2017-07-18T11:03:57.786Z,2892
2017-07-18T11:04:57.503Z,2976
2017-07-18T11:05:56.903Z,2844
2017-07-18T11:06:57.568Z,2828
2017-07-18T11:07:57.589Z,2856
2017-07-18T11:08:57.935Z,2996
2017-07-18T11:09:57.330Z,2884
2017-07-18T11:10:57.684Z,3072
2017-07-18T11:11:57.714Z,3424
2017-07-18T11:12:58.059Z,3564
2017-07-18T11:13:57.458Z,3672
2017-07-18T11:14:57.796Z,3640
2017-07-18T11:15:57.533Z,3700
2017-07-18T11:16:57.862Z,3852
2017-07-18T11:17:57.918Z,3924
2017-07-18T11:18:57.607Z,4096
2017-07-18T11:19:57.960Z,4504
2017-07-18T11:20:57.360Z,4744
2017-07-18T11:21:58.332Z,5176
2017-07-18T11:22:58.372Z,5388
2017-07-18T11:23:57.767Z,5308
2017-07-18T11:24:57.794Z,5804
2017-07-18T11:25:58.464Z,6116
2017-07-18T11:26:58.169Z,6140
2017-07-18T11:27:58.570Z,6112
2017-07-18T11:28:58.227Z,5824
2017-07-18T11:29:58.576Z,6056
2017-07-18T11:30:57.981Z,6232
2017-07-18T11:31:58.625Z,6584
2017-07-18T11:32:58.039Z,6648
2017-07-18T11:33:58.072Z,6520
2017-07-18T11:34:58.409Z,6684
2017-07-18T11:35:58.762Z,6992
2017-07-18T11:36:58.474Z,7440
2017-07-18T11:37:59.062Z,8312
2017-07-18T11:38:58.850Z,8976
2017-07-18T11:39:58.892Z,10000
2017-07-18T11:40:58.597Z,10548
2017-07-18T11:41:58.946Z,10780
2017-07-18T11:42:59.219Z,11424
2017-07-18T11:43:58.687Z,17044
2017-07-18T11:44:59.031Z,34144
2017-07-18T11:45:59.062Z,37952
2017-07-18T11:46:59.103Z,36256
2017-07-18T11:47:58.755Z,4220
2017-07-18T11:48:59.166Z,3556
2017-07-18T11:49:58.876Z,2980
2017-07-18T11:50:58.900Z,2884
2017-07-18T11:51:58.930Z,3228
2017-07-18T11:52:59.520Z,3796
2017-07-18T11:53:59.313Z,4480
2017-07-18T11:54:59.024Z,5320
2017-07-18T11:55:58.757Z,29952
2017-07-18T11:56:59.093Z,27104
2017-07-18T11:57:59.695Z,39040
2017-07-18T11:58:59.464Z,41824
2017-07-18T11:59:59.501Z,39872
2017-07-18T12:00:58.916Z,38464
2017-07-18T12:01:59.250Z,13092
2017-07-18T12:02:59.597Z,5800
2017-07-18T12:03:59.628Z,13336
2017-07-18T12:04:59.353Z,32160
2017-07-18T12:05:59.405Z,6212
2017-07-18T12:06:59.406Z,9220
2017-07-18T12:08:00.016Z,8988
2017-07-18T12:08:59.783Z,9964
2017-07-18T12:09:59.510Z,8096
2017-07-18T12:10:58.916Z,13976
2017-07-18T12:11:59.586Z,11364
2017-07-18T12:12:59.590Z,18216
2017-07-18T12:13:59.956Z,23136
2017-07-18T12:14:59.669Z,26848
2017-07-18T12:16:00.011Z,16440
2017-07-18T12:16:59.730Z,10896
2017-07-18T12:18:00.316Z,7988
2017-07-18T12:19:00.100Z,8696
2017-07-18T12:19:59.825Z,10636
2017-07-18T12:20:59.863Z,8776
2017-07-18T12:21:59.890Z,8456
2017-07-18T12:23:00.187Z,8852
2017-07-18T12:24:00.261Z,13840
2017-07-18T12:24:59.661Z,24736
2017-07-18T12:25:59.704Z,38784
2017-07-18T12:27:00.051Z,45504
2017-07-18T12:28:00.647Z,48576
2017-07-18T12:29:00.425Z,32128
2017-07-18T12:30:00.142Z,32128
2017-07-18T12:31:00.485Z,13976
2017-07-18T12:31:59.895Z,32576
2017-07-18T12:33:00.494Z,33088
2017-07-18T12:34:00.584Z,30048
2017-07-18T12:35:00.618Z,33472
2017-07-18T12:36:00.034Z,31872
2017-07-18T12:37:00.375Z,50368
2017-07-18T12:38:00.709Z,32992
2017-07-18T12:39:00.438Z,41344
2017-07-18T12:40:00.785Z,44448
2017-07-18T12:41:00.501Z,26240
2017-07-18T12:42:00.235Z,41728
2017-07-18T12:43:00.864Z,36864
2017-07-18T12:44:00.611Z,26592
2017-07-18T12:45:00.634Z,25024
2017-07-18T12:46:00.688Z,22464
2017-07-18T12:47:01.015Z,25632
2017-07-18T12:48:00.727Z,40992
2017-07-18T12:49:01.069Z,44448
2017-07-18T12:50:00.810Z,38208
2017-07-18T12:51:00.838Z,38080
2017-07-18T12:52:01.180Z,36192
2017-07-18T12:53:01.460Z,11092
2017-07-18T12:54:01.241Z,10732
2017-07-18T12:55:00.956Z,15144
2017-07-18T12:56:00.686Z,13316
2017-07-18T12:57:00.705Z,20896
2017-07-18T12:58:01.685Z,11188
2017-07-18T12:59:01.174Z,8504
2017-07-18T13:00:01.128Z,8108
2017-07-18T13:01:00.847Z,11880
2017-07-18T13:02:01.215Z,19616
2017-07-18T13:03:01.524Z,9624
2017-07-18T13:04:01.261Z,8808
2017-07-18T13:05:01.010Z,9120
2017-07-18T13:06:01.325Z,10360
2017-07-18T13:07:01.040Z,24512
2017-07-18T13:08:02.005Z,34816
2017-07-18T13:09:01.733Z,36736
2017-07-18T13:10:01.459Z,10644
2017-07-18T13:11:01.522Z,9912
2017-07-18T13:12:01.524Z,9776
2017-07-18T13:13:01.852Z,11676
2017-07-18T13:14:01.889Z,14264
2017-07-18T13:15:01.342Z,15632
2017-07-18T13:16:01.955Z,13312
2017-07-18T13:17:01.984Z,17228
2017-07-18T13:18:01.653Z,21120
2017-07-18T13:19:02.057Z,29472
2017-07-18T13:20:01.775Z,16552
2017-07-18T13:21:01.804Z,14236
2017-07-18T13:22:01.847Z,13472
2017-07-18T13:23:02.450Z,13012
2017-07-18T13:24:02.234Z,11176
2017-07-18T13:25:01.943Z,11120
2017-07-18T13:26:01.977Z,11572
2017-07-18T13:27:01.692Z,12260
2017-07-18T13:28:02.024Z,13776
2017-07-18T13:29:02.366Z,15588
2017-07-18T13:30:02.438Z,30880
2017-07-18T13:31:02.444Z,18784
2017-07-18T13:32:02.173Z,31968
2017-07-18T13:33:01.873Z,32576
2017-07-18T13:34:01.917Z,21376
2017-07-18T13:35:02.255Z,10724
2017-07-18T13:36:01.985Z,11052
2017-07-18T13:37:02.006Z,13704
2017-07-18T13:38:01.729Z,43904
2017-07-18T13:39:03.026Z,45728
2017-07-18T13:40:02.734Z,39392
2017-07-18T13:41:02.452Z,47232
2017-07-18T13:42:01.909Z,16536
2017-07-18T13:43:02.202Z,12340
2017-07-18T13:44:03.157Z,14024
2017-07-18T13:45:02.280Z,29600
2017-07-18T13:46:02.615Z,49632
2017-07-18T13:47:02.337Z,43136
2017-07-18T13:48:02.677Z,50688